createdAt,value
2022-10-09T00:00:18.570Z,61.12
2022-10-09T00:03:08.970Z,61.04
2022-10-09T00:05:59.431Z,61.01
2022-10-09T00:08:49.528Z,61.11
2022-10-09T00:11:39.630Z,61.15
2022-10-09T00:14:29.776Z,61.17
2022-10-09T00:17:20.312Z,61.19
2022-10-09T00:20:11.408Z,61.31
2022-10-09T00:23:01.430Z,61.43
2022-10-09T00:25:56.144Z,61.46
2022-10-09T00:28:46.789Z,61.47
2022-10-09T00:31:36.709Z,61.47
2022-10-09T00:34:26.363Z,61.48
2022-10-09T00:37:16.476Z,61.56
2022-10-09T00:40:09.603Z,61.49
2022-10-09T00:43:00.756Z,61.40
2022-10-09T00:45:56.751Z,61.47
2022-10-09T00:48:47.416Z,61.37
2022-10-09T00:51:38.570Z,61.27
2022-10-09T00:54:32.991Z,61.25
2022-10-09T00:57:23.921Z,61.38
2022-10-09T01:00:16.547Z,61.57
2022-10-09T01:03:06.652Z,61.67
2022-10-09T01:06:08.777Z,61.75
2022-10-09T01:09:07.266Z,61.74
2022-10-09T01:12:01.912Z,61.69
2022-10-09T01:15:00.279Z,61.80
2022-10-09T01:17:58.889Z,61.87
2022-10-09T01:20:52.526Z,61.82
2022-10-09T01:24:05.253Z,61.80
2022-10-09T01:27:11.226Z,61.78
2022-10-09T01:30:05.174Z,61.67
2022-10-09T01:32:57.294Z,61.59
2022-10-09T01:35:48.262Z,61.57
2022-10-09T01:38:40.483Z,61.52
2022-10-09T01:41:30.887Z,61.56
2022-10-09T01:44:23.574Z,61.58
2022-10-09T01:47:17.971Z,61.49
2022-10-09T01:50:17.162Z,61.42
2022-10-09T01:53:12.799Z,61.32
2022-10-09T01:56:09.215Z,61.37
2022-10-09T01:59:02.989Z,61.43
2022-10-09T02:01:53.703Z,61.65
2022-10-09T02:04:45.177Z,62.00
2022-10-09T02:07:36.038Z,62.20
2022-10-09T02:10:27.333Z,62.40
2022-10-09T02:13:17.238Z,62.39
2022-10-09T02:16:13.941Z,62.63
2022-10-09T02:19:09.984Z,62.68
2022-10-09T02:22:06.852Z,62.84
2022-10-09T02:24:58.461Z,62.87
2022-10-09T02:27:49.285Z,62.94
2022-10-09T02:30:45.970Z,62.85
2022-10-09T02:33:36.865Z,62.86
2022-10-09T02:36:28.105Z,62.88
2022-10-09T02:39:18.721Z,62.90
2022-10-09T02:42:09.178Z,62.95
2022-10-09T02:44:59.604Z,62.97
2022-10-09T02:47:50.516Z,63.10
2022-10-09T02:50:40.701Z,63.18
2022-10-09T02:53:31.422Z,63.27
2022-10-09T02:56:22.315Z,63.30
2022-10-09T02:59:12.475Z,63.29
2022-10-09T03:02:02.781Z,63.22
2022-10-09T03:04:52.826Z,63.34
2022-10-09T03:07:50.306Z,63.25
2022-10-09T03:10:41.929Z,63.24
2022-10-09T03:13:32.446Z,63.20
2022-10-09T03:16:25.012Z,63.29
2022-10-09T03:19:15.101Z,63.17
2022-10-09T03:22:05.300Z,63.15
2022-10-09T03:24:54.943Z,63.15
2022-10-09T03:27:44.628Z,63.25
2022-10-09T03:30:34.067Z,63.31
2022-10-09T03:33:24.294Z,63.22
2022-10-09T03:36:15.324Z,63.30
2022-10-09T03:39:05.388Z,63.25
2022-10-09T03:41:55.062Z,63.39
2022-10-09T03:44:45.356Z,63.32
2022-10-09T03:47:35.177Z,63.41
2022-10-09T03:50:25.381Z,63.34
2022-10-09T03:53:16.339Z,63.27
2022-10-09T03:56:06.353Z,63.09
2022-10-09T03:58:56.508Z,63.15
2022-10-09T04:01:46.594Z,63.18
2022-10-09T04:04:36.640Z,63.18
2022-10-09T04:07:26.959Z,63.21
2022-10-09T04:10:17.329Z,63.22
2022-10-09T04:13:07.403Z,63.38
2022-10-09T04:15:58.330Z,63.25
2022-10-09T04:18:48.680Z,63.19
2022-10-09T04:21:38.495Z,63.19
2022-10-09T04:24:28.313Z,63.20
2022-10-09T04:27:18.295Z,63.19
2022-10-09T04:30:10.852Z,63.13
2022-10-09T04:33:00.600Z,63.07
2022-10-09T04:35:54.321Z,63.06
2022-10-09T04:38:44.711Z,63.04
2022-10-09T04:41:38.239Z,63.08
2022-10-09T04:44:29.058Z,63.13
2022-10-09T04:47:19.054Z,63.17
2022-10-09T04:50:11.577Z,63.10
2022-10-09T04:53:20.321Z,63.14
2022-10-09T04:56:12.138Z,62.95
2022-10-09T04:59:02.285Z,62.86
2022-10-09T05:01:52.443Z,62.81
2022-10-09T05:04:44.245Z,62.93
2022-10-09T05:07:34.044Z,62.89
2022-10-09T05:10:24.013Z,62.47
2022-10-09T05:13:14.063Z,62.21
2022-10-09T05:16:07.710Z,61.97
2022-10-09T05:18:59.818Z,62.03
2022-10-09T05:21:49.590Z,61.90
2022-10-09T05:24:39.441Z,61.70
2022-10-09T05:27:29.472Z,61.70
2022-10-09T05:30:19.820Z,61.51
2022-10-09T05:33:09.572Z,61.55
2022-10-09T05:36:00.875Z,61.54
2022-10-09T05:38:52.765Z,61.94
2022-10-09T05:41:42.965Z,62.28
2022-10-09T05:44:32.667Z,61.82
2022-10-09T05:47:22.645Z,61.47
2022-10-09T05:50:13.531Z,61.42
2022-10-09T05:53:03.815Z,61.43
2022-10-09T05:55:53.295Z,61.48
2022-10-09T05:58:43.516Z,61.28
2022-10-09T06:01:35.812Z,61.17
2022-10-09T06:04:27.058Z,61.03
2022-10-09T06:07:17.419Z,60.88
2022-10-09T06:10:08.630Z,60.79
2022-10-09T06:12:59.335Z,60.72
2022-10-09T06:15:56.041Z,60.84
2022-10-09T06:18:49.263Z,60.79
2022-10-09T06:21:40.712Z,60.61
2022-10-09T06:24:30.668Z,60.33
2022-10-09T06:27:21.044Z,60.19
2022-10-09T06:30:13.719Z,60.01
2022-10-09T06:33:04.106Z,59.96
2022-10-09T06:36:00.778Z,59.76
2022-10-09T06:38:56.616Z,59.69
2022-10-09T06:41:46.784Z,59.76
2022-10-09T06:44:48.093Z,59.81
2022-10-09T06:47:37.831Z,59.74
2022-10-09T06:50:27.711Z,59.62
2022-10-09T06:53:18.302Z,59.52
2022-10-09T06:56:10.654Z,59.36
2022-10-09T06:59:03.150Z,59.38
2022-10-09T07:01:52.773Z,59.45
2022-10-09T07:04:42.416Z,59.49
2022-10-09T07:07:32.112Z,59.46
2022-10-09T07:10:25.207Z,59.42
2022-10-09T07:13:15.060Z,59.28
2022-10-09T07:16:05.092Z,59.26
2022-10-09T07:18:55.151Z,59.18
2022-10-09T07:21:46.610Z,59.00
2022-10-09T07:24:36.495Z,58.84
2022-10-09T07:27:26.368Z,58.75
2022-10-09T07:30:16.709Z,58.84
2022-10-09T07:33:06.094Z,58.72
2022-10-09T07:36:00.469Z,58.99
2022-10-09T07:38:54.684Z,59.22
2022-10-09T07:41:44.667Z,59.08
2022-10-09T07:44:34.857Z,58.95
2022-10-09T07:47:24.533Z,58.80
2022-10-09T07:50:14.552Z,58.81
2022-10-09T07:53:04.514Z,58.94
2022-10-09T07:55:54.161Z,58.94
2022-10-09T07:58:43.971Z,59.04
2022-10-09T08:01:35.449Z,58.95
2022-10-09T08:04:24.958Z,58.89
2022-10-09T08:07:14.984Z,58.90
2022-10-09T08:10:05.207Z,59.00
2022-10-09T08:12:56.103Z,59.05
2022-10-09T08:15:46.880Z,59.03
2022-10-09T08:18:37.024Z,59.03
2022-10-09T08:21:28.807Z,59.09
2022-10-09T08:24:19.348Z,59.17
2022-10-09T08:27:09.914Z,59.14
2022-10-09T08:30:00.217Z,59.26
2022-10-09T08:32:50.865Z,59.29
2022-10-09T08:35:41.467Z,59.50
2022-10-09T08:38:46.610Z,59.54
2022-10-09T08:41:46.956Z,59.40
2022-10-09T08:44:43.429Z,59.46
2022-10-09T08:47:42.210Z,59.52
2022-10-09T08:50:34.637Z,59.41
2022-10-09T08:53:38.733Z,59.43
2022-10-09T08:56:30.579Z,59.26
2022-10-09T08:59:20.784Z,59.28
2022-10-09T09:02:28.309Z,59.26
2022-10-09T09:05:31.501Z,59.07
2022-10-09T09:08:31.773Z,58.85
2022-10-09T09:11:29.627Z,58.72
2022-10-09T09:14:35.827Z,58.48
2022-10-09T09:17:35.286Z,58.44
2022-10-09T09:20:31.015Z,58.40
2022-10-09T09:23:24.013Z,58.01
2022-10-09T09:26:17.638Z,57.71
2022-10-09T09:29:07.907Z,57.67
2022-10-09T09:32:02.393Z,57.57
2022-10-09T09:34:54.611Z,57.54
2022-10-09T09:37:44.819Z,57.55
2022-10-09T09:40:38.490Z,57.41
2022-10-09T09:43:29.666Z,57.41
2022-10-09T09:46:23.379Z,57.33
2022-10-09T09:49:20.733Z,57.38
2022-10-09T09:52:12.714Z,57.19
2022-10-09T09:55:03.062Z,57.19
2022-10-09T09:57:53.634Z,57.41
2022-10-09T10:00:54.037Z,57.33
2022-10-09T10:03:51.203Z,57.32
2022-10-09T10:06:47.027Z,57.14
2022-10-09T10:09:37.097Z,57.00
2022-10-09T10:12:27.370Z,57.09
2022-10-09T10:15:24.731Z,57.09
2022-10-09T10:18:19.134Z,56.95
2022-10-09T10:21:14.166Z,57.24
2022-10-09T10:24:07.121Z,57.23
2022-10-09T10:27:00.107Z,57.21
2022-10-09T10:29:51.782Z,57.25
2022-10-09T10:32:50.260Z,57.38
2022-10-09T10:35:43.678Z,57.29
2022-10-09T10:38:38.186Z,57.16
2022-10-09T10:41:32.040Z,57.17
2022-10-09T10:44:34.607Z,57.16
2022-10-09T10:47:28.045Z,57.15
2022-10-09T10:50:21.023Z,57.24
2022-10-09T10:53:23.573Z,57.11
2022-10-09T10:56:23.246Z,57.09
2022-10-09T10:59:35.402Z,57.14
2022-10-09T11:02:52.174Z,57.15
2022-10-09T11:05:51.754Z,57.22
2022-10-09T11:08:59.104Z,57.33
2022-10-09T11:11:54.474Z,57.41
2022-10-09T11:14:54.006Z,57.38
2022-10-09T11:17:51.729Z,57.50
2022-10-09T11:21:04.756Z,57.50
2022-10-09T11:24:10.605Z,57.27
2022-10-09T11:27:10.450Z,57.34
2022-10-09T11:30:03.805Z,57.30
2022-10-09T11:33:00.837Z,57.23
2022-10-09T11:35:59.326Z,56.99
2022-10-09T11:38:51.600Z,56.73
2022-10-09T11:41:42.050Z,56.61
2022-10-09T11:44:47.939Z,56.41
2022-10-09T11:47:48.134Z,56.28
2022-10-09T11:50:49.442Z,56.08
2022-10-09T11:53:41.245Z,55.89
2022-10-09T11:56:32.265Z,55.90
2022-10-09T11:59:29.998Z,55.94
2022-10-09T12:02:28.910Z,55.79
2022-10-09T12:05:40.132Z,55.85
2022-10-09T12:08:30.124Z,56.00
2022-10-09T12:11:21.581Z,55.93
2022-10-09T12:14:25.067Z,55.79
2022-10-09T12:17:36.320Z,55.79
2022-10-09T12:20:28.541Z,55.72
2022-10-09T12:23:27.703Z,55.51
2022-10-09T12:26:22.129Z,55.37
2022-10-09T12:29:20.358Z,55.49
2022-10-09T12:32:17.114Z,55.62
2022-10-09T12:35:20.020Z,55.64
2022-10-09T12:38:24.564Z,55.62
2022-10-09T12:41:22.147Z,55.61
2022-10-09T12:44:23.029Z,55.60
2022-10-09T12:47:21.094Z,55.61
2022-10-09T12:50:26.474Z,55.60
2022-10-09T12:53:18.769Z,55.58
2022-10-09T12:56:15.313Z,55.56
2022-10-09T12:59:07.218Z,55.53
2022-10-09T13:02:02.183Z,55.65
2022-10-09T13:05:00.965Z,55.73
2022-10-09T13:07:55.850Z,55.76
2022-10-09T13:10:45.767Z,55.85
2022-10-09T13:13:35.694Z,56.16
2022-10-09T13:16:26.661Z,56.42
2022-10-09T13:19:27.562Z,56.44
2022-10-09T13:22:22.533Z,56.45
2022-10-09T13:25:12.935Z,56.42
2022-10-09T13:28:03.620Z,56.34
2022-10-09T13:30:54.542Z,56.28
2022-10-09T13:33:44.945Z,56.13
2022-10-09T13:36:34.743Z,56.22
2022-10-09T13:39:25.011Z,56.52
2022-10-09T13:42:17.469Z,56.92
2022-10-09T13:45:08.279Z,57.10
2022-10-09T13:47:58.008Z,57.46
2022-10-09T13:50:48.432Z,57.60
2022-10-09T13:53:38.017Z,57.72
2022-10-09T13:56:28.152Z,57.86
2022-10-09T13:59:18.121Z,58.19
2022-10-09T14:02:08.506Z,58.29
2022-10-09T14:04:58.771Z,58.51
2022-10-09T14:07:48.854Z,58.71
2022-10-09T14:10:42.187Z,58.52
2022-10-09T14:13:32.101Z,58.45
2022-10-09T14:16:22.960Z,58.45
2022-10-09T14:19:13.910Z,58.41
2022-10-09T14:22:03.962Z,58.33
2022-10-09T14:24:53.773Z,58.23
2022-10-09T14:27:44.175Z,58.15
2022-10-09T14:30:35.062Z,58.09
2022-10-09T14:33:25.496Z,58.14
2022-10-09T14:36:18.909Z,58.28
2022-10-09T14:39:09.372Z,58.26
2022-10-09T14:41:59.652Z,58.42
2022-10-09T14:44:50.326Z,58.51
2022-10-09T14:47:40.613Z,58.69
2022-10-09T14:50:30.601Z,58.72
2022-10-09T14:53:20.515Z,58.81
2022-10-09T14:56:14.154Z,58.90
2022-10-09T14:59:06.142Z,58.93
2022-10-09T15:01:56.331Z,58.93
2022-10-09T15:04:46.415Z,58.94
2022-10-09T15:07:36.135Z,58.92
2022-10-09T15:10:27.359Z,58.98
2022-10-09T15:13:17.334Z,58.99
2022-10-09T15:16:09.268Z,59.06
2022-10-09T15:18:59.206Z,59.21
2022-10-09T15:21:50.321Z,59.35
2022-10-09T15:24:40.450Z,59.59
2022-10-09T15:27:30.641Z,59.71
2022-10-09T15:30:20.795Z,59.89
2022-10-09T15:33:11.101Z,59.97
2022-10-09T15:36:01.162Z,59.94
2022-10-09T15:38:51.325Z,59.90
2022-10-09T15:41:43.283Z,59.88
2022-10-09T15:44:33.070Z,59.63
2022-10-09T15:47:39.277Z,59.40
2022-10-09T15:50:35.834Z,59.16
2022-10-09T15:53:27.132Z,59.26
2022-10-09T15:56:19.410Z,59.43
2022-10-09T15:59:11.605Z,59.46
2022-10-09T16:02:01.249Z,59.57
2022-10-09T16:04:51.216Z,59.86
2022-10-09T16:07:41.557Z,59.85
2022-10-09T16:10:31.026Z,59.85
2022-10-09T16:13:21.108Z,59.77
2022-10-09T16:16:14.542Z,59.63
2022-10-09T16:19:05.612Z,59.46
2022-10-09T16:21:55.369Z,59.31
2022-10-09T16:24:45.140Z,59.12
2022-10-09T16:27:35.676Z,58.97
2022-10-09T16:30:25.739Z,58.79
2022-10-09T16:33:15.714Z,58.75
2022-10-09T16:36:13.879Z,58.60
2022-10-09T16:39:04.084Z,58.58
2022-10-09T16:41:54.281Z,58.53
2022-10-09T16:44:45.461Z,58.62
2022-10-09T16:47:35.523Z,58.60
2022-10-09T16:50:25.749Z,58.76
2022-10-09T16:53:15.895Z,58.72
2022-10-09T16:56:12.772Z,58.69
2022-10-09T16:59:05.021Z,58.77
2022-10-09T17:01:57.365Z,58.72
2022-10-09T17:04:47.867Z,58.69
2022-10-09T17:07:37.854Z,58.87
2022-10-09T17:10:27.678Z,58.98
2022-10-09T17:13:17.891Z,59.00
2022-10-09T17:16:14.432Z,58.88
2022-10-09T17:19:08.114Z,58.60
2022-10-09T17:21:58.017Z,58.34
2022-10-09T17:24:48.133Z,58.31
2022-10-09T17:27:38.248Z,58.25
2022-10-09T17:30:28.175Z,58.32
2022-10-09T17:33:19.914Z,58.03
2022-10-09T17:36:10.729Z,57.69
2022-10-09T17:39:00.791Z,57.62
2022-10-09T17:41:51.541Z,57.60
2022-10-09T17:44:41.478Z,57.46
2022-10-09T17:47:30.999Z,57.53
2022-10-09T17:50:21.044Z,57.49
2022-10-09T17:53:10.801Z,57.38
2022-10-09T17:56:05.571Z,57.54
2022-10-09T17:58:57.068Z,58.45
2022-10-09T18:01:47.533Z,58.37
2022-10-09T18:04:37.290Z,57.38
2022-10-09T18:07:27.607Z,56.68
2022-10-09T18:10:18.316Z,56.27
2022-10-09T18:13:09.392Z,56.03
2022-10-09T18:15:59.500Z,55.87
2022-10-09T18:18:49.997Z,55.84
2022-10-09T18:21:41.899Z,55.65
2022-10-09T18:24:32.419Z,55.76
2022-10-09T18:27:24.048Z,55.90
2022-10-09T18:30:17.018Z,55.85
2022-10-09T18:33:06.872Z,56.02
2022-10-09T18:35:56.853Z,56.06
2022-10-09T18:38:48.133Z,56.03
2022-10-09T18:41:39.155Z,56.29
2022-10-09T18:44:30.277Z,56.30
2022-10-09T18:47:22.410Z,56.36
2022-10-09T18:50:16.887Z,56.52
2022-10-09T18:53:06.809Z,56.48
2022-10-09T18:55:57.222Z,56.48
2022-10-09T18:58:48.304Z,56.60
2022-10-09T19:01:38.295Z,56.63
2022-10-09T19:04:28.129Z,56.77
2022-10-09T19:07:18.098Z,56.62
2022-10-09T19:10:08.998Z,56.50
2022-10-09T19:12:58.861Z,56.36
2022-10-09T19:15:55.282Z,56.42
2022-10-09T19:18:45.458Z,56.57
2022-10-09T19:21:36.347Z,56.74
2022-10-09T19:24:25.946Z,56.69
2022-10-09T19:27:16.491Z,56.73
2022-10-09T19:30:07.307Z,56.91
2022-10-09T19:32:57.753Z,56.89
2022-10-09T19:35:53.435Z,56.78
2022-10-09T19:38:43.420Z,56.83
2022-10-09T19:41:34.214Z,57.11
2022-10-09T19:44:23.991Z,56.82
2022-10-09T19:47:14.517Z,56.68
2022-10-09T19:50:04.696Z,56.64
2022-10-09T19:52:55.129Z,56.82
2022-10-09T19:55:44.818Z,56.82
2022-10-09T19:58:34.812Z,56.87
2022-10-09T20:01:27.248Z,57.20
2022-10-09T20:04:17.005Z,57.30
2022-10-09T20:07:11.716Z,57.40
2022-10-09T20:10:02.417Z,57.60
2022-10-09T20:12:52.983Z,57.79
2022-10-09T20:15:45.443Z,57.72
2022-10-09T20:18:35.852Z,57.79
2022-10-09T20:21:26.203Z,57.92
2022-10-09T20:24:16.394Z,58.16
2022-10-09T20:27:06.103Z,58.42
2022-10-09T20:29:56.767Z,58.69
2022-10-09T20:32:49.122Z,58.90
2022-10-09T20:35:45.498Z,58.97
2022-10-09T20:38:36.205Z,59.17
2022-10-09T20:41:28.734Z,59.35
2022-10-09T20:44:18.850Z,59.59
2022-10-09T20:47:09.354Z,59.77
2022-10-09T20:49:59.865Z,59.55
2022-10-09T20:52:50.642Z,59.43
2022-10-09T20:55:40.945Z,59.61
2022-10-09T20:58:31.858Z,59.66
2022-10-09T21:01:21.936Z,59.57
2022-10-09T21:04:12.469Z,59.68
2022-10-09T21:07:02.072Z,59.86
2022-10-09T21:09:51.805Z,59.96
2022-10-09T21:12:41.641Z,60.17
2022-10-09T21:15:31.196Z,60.42
2022-10-09T21:18:22.148Z,60.65
2022-10-09T21:21:14.967Z,60.80
2022-10-09T21:24:05.469Z,60.89
2022-10-09T21:26:55.391Z,61.03
2022-10-09T21:29:45.039Z,61.04
2022-10-09T21:32:34.617Z,61.18
2022-10-09T21:35:24.836Z,61.05
2022-10-09T21:38:16.546Z,60.94
2022-10-09T21:41:07.207Z,60.83
2022-10-09T21:43:57.007Z,60.88
2022-10-09T21:46:47.037Z,60.88
2022-10-09T21:49:38.347Z,60.72
2022-10-09T21:52:28.420Z,60.74
2022-10-09T21:55:18.779Z,60.82
2022-10-09T21:58:09.039Z,60.97
2022-10-09T22:01:00.054Z,61.01
2022-10-09T22:03:49.988Z,61.11
2022-10-09T22:06:41.142Z,61.04
2022-10-09T22:09:31.449Z,60.98
2022-10-09T22:12:21.657Z,60.96
2022-10-09T22:15:13.122Z,60.99
2022-10-09T22:18:03.013Z,61.16
2022-10-09T22:20:53.643Z,61.18
2022-10-09T22:23:44.033Z,61.11
2022-10-09T22:26:34.503Z,61.07
2022-10-09T22:29:24.277Z,61.01
2022-10-09T22:32:14.201Z,61.05
2022-10-09T22:35:03.790Z,61.01
2022-10-09T22:37:54.381Z,60.87
2022-10-09T22:40:47.251Z,60.74
2022-10-09T22:43:38.536Z,60.83
2022-10-09T22:46:31.196Z,61.03
2022-10-09T22:49:21.258Z,61.08
2022-10-09T22:52:11.499Z,60.99
2022-10-09T22:55:01.562Z,60.99
2022-10-09T22:57:51.123Z,61.09
2022-10-09T23:00:40.953Z,61.26
2022-10-09T23:03:31.048Z,61.40
2022-10-09T23:06:22.483Z,61.33
2022-10-09T23:09:16.315Z,61.37
2022-10-09T23:12:06.742Z,61.44
2022-10-09T23:14:57.262Z,61.55
2022-10-09T23:17:47.208Z,61.75
2022-10-09T23:20:39.482Z,61.84
2022-10-09T23:23:29.947Z,61.97
2022-10-09T23:26:21.069Z,62.05
2022-10-09T23:29:14.867Z,62.05
2022-10-09T23:32:04.919Z,62.23
2022-10-09T23:34:54.831Z,62.35
2022-10-09T23:37:44.649Z,62.39
2022-10-09T23:40:34.205Z,62.26
2022-10-09T23:43:24.574Z,62.22
2022-10-09T23:46:17.368Z,62.35
2022-10-09T23:49:07.835Z,62.43
2022-10-09T23:51:57.805Z,62.46
2022-10-09T23:54:47.546Z,62.49
2022-10-09T23:57:37.272Z,62.52
